Time;durP1;ratioP1;P1;durP2;ratioP2;P2;SDS_P1;SDS_P2;PMS_P1;PMS_P2;Temp;Humidity;BMP_temperature;BMP_pressure;BME280_temperature;BME280_humidity;BME280_pressure;Samples;Min_cycle;Max_cycle;Signal;HPM_P1;HPM_P2
2021/06/27 00:00:58;;;;;;;18.40;16.90;;;21.60;87.30;;;;;;4998916;28;20421;-92
2021/06/27 00:03:45;;;;;;;19.33;17.50;;;18.40;89.00;;;;;;4994903;28;20433;-93
2021/06/27 00:06:43;;;;;;;19.57;18.07;;;18.40;90.00;;;;;;4994544;28;20412;-93
2021/06/27 00:09:44;;;;;;;18.70;17.17;;;18.30;84.60;;;;;;4996712;28;20447;-93
2021/06/27 00:12:18;;;;;;;19.80;18.10;;;21.30;90.00;;;;;;4997399;28;20460;-91
2021/06/27 00:14:54;;;;;;;18.97;17.27;;;20.10;88.60;;;;;;4998484;28;20495;-92
2021/06/27 00:17:45;;;;;;;21.07;18.97;;;18.90;88.30;;;;;;4983485;28;20408;-92
2021/06/27 00:20:33;;;;;;;20.80;18.80;;;21.50;90.60;;;;;;5001418;28;20425;-90
2021/06/27 00:23:41;;;;;;;20.27;18.37;;;18.10;88.60;;;;;;4997342;28;20437;-91
2021/06/27 00:26:35;;;;;;;19.60;17.90;;;21.30;90.00;;;;;;5014051;28;20406;-92
2021/06/27 00:29:12;;;;;;;20.23;18.53;;;18.30;87.60;;;;;;4998979;28;20493;-92
2021/06/27 00:31:44;;;;;;;20.53;18.83;;;18.20;85.70;;;;;;4980343;28;20463;-92
2021/06/27 00:34:52;;;;;;;20.03;18.23;;;18.30;85.20;;;;;;4996805;28;20493;-89
2021/06/27 00:37:45;;;;;;;19.10;17.40;;;21.30;89.60;;;;;;4999058;28;20473;-92
2021/06/27 00:40:21;;;;;;;18.60;17.10;;;18.60;85.80;;;;;;4998065;28;20398;-93
2021/06/27 00:42:52;;;;;;;18.87;17.50;;;18.20;87.30;;;;;;4982706;28;20425;-92
2021/06/27 00:45:40;;;;;;;20.60;18.47;;;18.30;89.20;;;;;;4981538;28;20433;-93
2021/06/27 00:48:50;;;;;;;20.20;18.50;;;18.40;85.90;;;;;;4998989;28;20437;-91
2021/06/27 00:51:17;;;;;;;20.50;18.53;;;17.80;85.00;;;;;;4989082;28;20413;-91
2021/06/27 00:53:55;;;;;;;19.27;17.70;;;16.80;88.30;;;;;;4996196;28;20484;-93
2021/06/27 00:56:24;;;;;;;19.03;17.10;;;18.10;85.30;;;;;;4993978;28;21011;-91
2021/06/27 00:58:50;;;;;;;21.10;19.17;;;18.10;87.80;;;;;;5009140;28;20423;-88
2021/06/27 01:01:23;;;;;;;19.90;18.30;;;18.00;87.60;;;;;;5011026;28;20540;-93
2021/06/27 01:03:48;;;;;;;20.47;18.37;;;18.00;87.60;;;;;;5009407;28;20481;-93
2021/06/27 01:06:20;;;;;;;19.50;17.90;;;17.90;87.90;;;;;;5011442;28;20406;-91
2021/06/27 01:09:22;;;;;;;19.27;17.67;;;18.40;87.10;;;;;;5012734;28;20437;-91
2021/06/27 01:11:54;;;;;;;20.67;18.63;;;20.90;90.00;;;;;;4996965;28;20472;-92
2021/06/27 01:14:22;;;;;;;21.07;19.17;;;20.90;90.20;;;;;;5012578;28;20432;-92
2021/06/27 01:17:00;;;;;;;20.20;18.40;;;17.80;85.40;;;;;;4979596;28;20461;-92
2021/06/27 01:19:39;;;;;;;19.90;18.10;;;17.70;88.70;;;;;;4998202;28;20460;-92
2021/06/27 01:22:21;;;;;;;21.33;19.47;;;20.70;90.50;;;;;;4996377;28;20389;-92
2021/06/27 01:24:56;;;;;;;19.90;18.40;;;16.20;85.30;;;;;;5013324;28;20441;-93
2021/06/27 01:27:26;;;;;;;20.53;18.70;;;17.60;90.20;;;;;;4996992;28;20460;-94
2021/06/27 01:30:14;;;;;;;20.37;18.50;;;17.50;90.20;;;;;;5012414;28;20429;-92
2021/06/27 01:32:52;;;;;;;18.93;17.37;;;20.50;91.00;;;;;;4982803;28;20409;-92
2021/06/27 01:35:38;;;;;;;19.30;17.80;;;20.60;90.80;;;;;;4997601;28;20481;-92
2021/06/27 01:38:25;;;;;;;18.70;17.30;;;17.60;90.10;;;;;;4992122;28;20434;-93
2021/06/27 01:40:54;;;;;;;20.10;18.30;;;17.60;90.00;;;;;;5012841;28;20488;-92
2021/06/27 01:43:23;;;;;;;18.27;16.77;;;17.60;90.90;;;;;;4996959;28;20449;-92
2021/06/27 01:53:48;;;;;;;19.30;17.67;;;17.70;87.60;;;;;;5166560;23;20505;-92
2021/06/27 01:56:21;;;;;;;18.57;16.90;;;17.60;86.90;;;;;;4962334;29;20532;-91
2021/06/27 01:58:51;;;;;;;19.90;18.40;;;20.70;90.50;;;;;;4939703;29;20442;-93
2021/06/27 02:01:32;;;;;;;17.90;16.47;;;17.60;88.20;;;;;;4976265;28;20479;-92
2021/06/27 02:03:58;;;;;;;17.50;16.10;;;19.30;89.60;;;;;;4959426;29;20449;-92
2021/06/27 02:06:26;;;;;;;21.00;19.10;;;17.50;88.20;;;;;;4970801;28;20435;-92
2021/06/27 02:08:55;;;;;;;19.93;17.93;;;17.50;88.70;;;;;;4975077;29;20434;-91
2021/06/27 02:12:12;;;;;;;18.67;17.17;;;17.40;89.50;;;;;;4946752;29;20449;-92
2021/06/27 02:15:13;;;;;;;18.90;17.37;;;20.50;90.40;;;;;;4977989;28;20458;-94
2021/06/27 02:18:21;;;;;;;19.40;17.70;;;19.80;90.30;;;;;;4978777;28;20422;-91
2021/06/27 02:21:01;;;;;;;18.27;16.67;;;20.60;90.60;;;;;;4964731;29;20485;-93
2021/06/27 02:23:32;;;;;;;20.97;18.87;;;17.50;89.20;;;;;;4974294;28;20482;-94
2021/06/27 02:25:59;;;;;;;18.17;16.73;;;17.40;89.40;;;;;;4977625;28;20413;-92
2021/06/27 02:28:28;;;;;;;19.77;17.90;;;17.50;89.70;;;;;;4970704;28;20450;-93
2021/06/27 02:30:55;;;;;;;19.70;17.77;;;18.80;89.70;;;;;;4971973;28;20898;-93
2021/06/27 02:33:21;;;;;;;20.47;18.67;;;21.90;92.10;;;;;;4966642;28;20426;-95
2021/06/27 02:35:47;;;;;;;16.93;15.63;;;17.40;90.00;;;;;;4975094;28;20484;-93
2021/06/27 02:38:15;;;;;;;19.70;17.90;;;17.40;89.70;;;;;;4973566;28;20474;-92
2021/06/27 02:41:01;;;;;;;18.77;17.30;;;22.40;92.70;;;;;;4946987;29;20442;-92
2021/06/27 02:43:33;;;;;;;20.03;18.33;;;20.30;91.30;;;;;;4980558;29;20418;-93
2021/06/27 02:46:03;;;;;;;18.13;16.53;;;17.10;87.60;;;;;;4975824;28;20410;-92
2021/06/27 02:48:34;;;;;;;19.20;17.60;;;17.60;91.00;;;;;;4975505;28;20486;-92
2021/06/27 02:51:01;;;;;;;17.60;16.20;;;19.30;89.80;;;;;;4980301;28;20430;-91
2021/06/27 02:53:54;;;;;;;18.00;16.40;;;17.60;88.80;;;;;;4960328;29;20466;-90
2021/06/27 02:58:57;;;;;;;17.30;15.90;;;17.40;99.90;;;;;;5272311;23;20480;-92
2021/06/27 03:01:24;;;;;;;19.57;17.87;;;18.10;87.60;;;;;;4995558;28;20429;-92
2021/06/27 03:03:51;;;;;;;17.30;15.97;;;17.20;90.00;;;;;;4990739;28;20413;-92
2021/06/27 03:06:19;;;;;;;19.60;17.90;;;17.30;90.30;;;;;;4994462;28;20417;-93
2021/06/27 03:08:46;;;;;;;19.77;17.97;;;17.20;90.50;;;;;;4991187;28;20936;-92
2021/06/27 03:11:17;;;;;;;19.40;17.57;;;17.10;90.90;;;;;;4994592;28;20433;-92
2021/06/27 03:13:44;;;;;;;18.47;16.97;;;18.10;90.50;;;;;;5609836;23;20483;-91
2021/06/27 03:16:11;;;;;;;19.97;18.10;;;17.10;90.80;;;;;;4959966;29;20522;-92
2021/06/27 03:18:49;;;;;;;19.73;18.03;;;17.10;91.30;;;;;;4977265;28;20448;-92
2021/06/27 03:21:17;;;;;;;20.23;18.07;;;17.10;91.90;;;;;;4974661;28;20438;-92
2021/06/27 03:23:43;;;;;;;21.10;19.20;;;17.00;87.80;;;;;;4951601;29;20459;-92
2021/06/27 03:26:09;;;;;;;19.77;18.17;;;;;;;;;;4951021;29;20461;-92
2021/06/27 03:29:06;;;;;;;19.80;17.87;;;16.80;88.30;;;;;;4956090;29;20410;-92
2021/06/27 03:31:57;;;;;;;18.90;16.90;;;16.80;89.50;;;;;;4937083;29;20428;-92
2021/06/27 03:34:35;;;;;;;19.03;17.53;;;16.80;88.70;;;;;;4961479;28;20422;-92
2021/06/27 03:41:03;;;;;;;19.30;17.40;;;18.50;90.20;;;;;;4934225;29;20395;-92
2021/06/27 03:43:41;;;;;;;19.50;17.53;;;19.30;91.30;;;;;;4940283;29;20385;-92
2021/06/27 03:46:16;;;;;;;18.80;17.23;;;19.90;91.70;;;;;;4939772;29;20408;-92
2021/06/27 03:48:49;;;;;;;18.77;17.17;;;19.90;91.90;;;;;;4923703;29;20515;-92
2021/06/27 03:51:32;;;;;;;19.33;17.60;;;16.80;88.90;;;;;;4914401;29;20424;-92
2021/06/27 03:54:10;;;;;;;18.57;17.10;;;19.80;91.70;;;;;;4939897;29;20396;-91
2021/06/27 03:56:44;;;;;;;19.63;17.90;;;17.60;90.40;;;;;;4940166;29;20534;-92
2021/06/27 03:59:13;;;;;;;18.30;16.80;;;17.00;90.10;;;;;;4939390;29;20468;-92
2021/06/27 04:01:40;;;;;;;18.40;16.90;;;18.60;90.80;;;;;;4909096;29;20492;-92
2021/06/27 04:04:30;;;;;;;19.10;17.50;;;17.20;89.80;;;;;;4911199;29;20540;-92
2021/06/27 04:07:34;;;;;;;19.23;17.43;;;17.20;88.10;;;;;;4940742;29;20428;-93
2021/06/27 04:10:36;;;;;;;18.10;16.70;;;20.40;90.60;;;;;;4942004;29;20464;-92
2021/06/27 04:14:22;;;;;;;18.83;16.73;;;19.80;90.20;;;;;;4958784;28;20451;-92
2021/06/27 04:17:06;;;;;;;17.37;16.07;;;20.60;90.70;;;;;;4960896;29;20419;-92
2021/06/27 04:19:34;;;;;;;17.20;15.90;;;16.60;84.60;;;;;;4942597;29;20446;-94
2021/06/27 04:22:12;;;;;;;18.30;16.77;;;17.00;93.70;;;;;;4960003;28;20455;-93
2021/06/27 04:25:02;;;;;;;17.07;15.73;;;20.60;90.50;;;;;;4944146;29;20451;-93
2021/06/27 04:27:35;;;;;;;17.37;15.83;;;18.50;87.00;;;;;;4958017;28;20443;-91
2021/06/27 04:30:28;;;;;;;17.90;16.37;;;20.80;89.80;;;;;;4960108;28;20511;-92
2021/06/27 04:33:01;;;;;;;17.83;16.23;;;21.00;88.70;;;;;;4958669;29;20446;-93
2021/06/27 04:35:37;;;;;;;18.70;17.20;;;18.00;84.20;;;;;;4958165;29;20559;-93
2021/06/27 04:40:47;;;;;;;17.07;15.77;;;23.10;92.40;;;;;;5001910;23;20457;-91
2021/06/27 04:43:16;;;;;;;16.30;15.00;;;19.30;88.00;;;;;;4999002;28;20417;-92
2021/06/27 04:45:43;;;;;;;18.13;16.33;;;16.50;78.80;;;;;;4980533;28;20425;-92
2021/06/27 04:48:29;;;;;;;18.43;16.73;;;18.50;81.70;;;;;;4998558;28;20425;-93
2021/06/27 04:50:57;;;;;;;16.90;15.60;;;18.30;79.40;;;;;;4997243;28;20425;-92
2021/06/27 04:53:47;;;;;;;16.80;15.37;;;18.60;83.20;;;;;;4996305;28;20483;-90
2021/06/27 04:56:17;;;;;;;15.70;14.60;;;18.60;79.00;;;;;;4982477;28;20484;-93
2021/06/27 04:59:15;;;;;;;16.40;14.97;;;20.30;81.60;;;;;;4996577;28;20426;-91
2021/06/27 05:01:59;;;;;;;15.37;14.03;;;17.80;79.40;;;;;;4994360;28;20441;-91
2021/06/27 05:04:44;;;;;;;16.63;15.27;;;19.10;80.70;;;;;;4979872;28;20422;-92
2021/06/27 05:07:44;;;;;;;18.37;16.80;;;21.60;82.90;;;;;;4996990;28;20441;-92
2021/06/27 05:10:13;;;;;;;15.97;14.80;;;21.00;82.40;;;;;;4996458;28;20481;-92
2021/06/27 05:12:43;;;;;;;16.97;15.50;;;18.70;80.60;;;;;;4963855;28;20426;-93
2021/06/27 05:15:25;;;;;;;16.90;15.40;;;18.70;81.70;;;;;;4964378;28;20505;-91
2021/06/27 05:17:56;;;;;;;16.90;15.20;;;18.90;79.10;;;;;;4992188;28;20421;-92
2021/06/27 05:20:33;;;;;;;17.60;16.10;;;18.70;81.10;;;;;;4997380;28;20432;-92
2021/06/27 05:23:05;;;;;;;15.90;14.73;;;18.80;80.30;;;;;;4978431;28;20493;-92
2021/06/27 05:25:57;;;;;;;16.30;15.13;;;16.70;78.00;;;;;;4994770;28;20433;-92
2021/06/27 05:28:32;;;;;;;16.80;15.50;;;19.00;86.00;;;;;;4997199;28;20413;-92
2021/06/27 05:31:03;;;;;;;16.13;14.93;;;19.10;80.90;;;;;;4994908;28;20497;-93
2021/06/27 05:33:32;;;;;;;15.50;14.10;;;23.00;85.10;;;;;;4979904;28;20493;-93
2021/06/27 05:35:59;;;;;;;16.90;15.70;;;25.40;91.50;;;;;;4982222;28;20465;-92
2021/06/27 05:38:55;;;;;;;15.60;14.50;;;20.30;70.80;;;;;;4978204;28;20409;-92
2021/06/27 05:45:23;;;;;;;13.70;12.80;;;20.90;69.10;;;;;;4976904;28;20422;-92
2021/06/27 05:47:51;;;;;;;14.93;13.57;;;23.00;72.10;;;;;;4955499;28;20414;-93
2021/06/27 05:51:04;;;;;;;;;;;;;;;;;;;;;
2021/06/27 05:53:43;;;;;;;14.30;13.30;;;22.10;64.00;;;;;;4977048;29;20430;-94
2021/06/27 05:56:19;;;;;;;14.17;13.03;;;21.90;62.40;;;;;;4988232;28;20501;-93
2021/06/27 05:58:46;;;;;;;12.80;11.90;;;22.50;60.30;;;;;;4992901;28;20432;-93
2021/06/27 06:01:20;;;;;;;14.00;13.10;;;21.90;58.10;;;;;;4989328;28;20437;-94
2021/06/27 06:03:56;;;;;;;13.20;12.40;;;23.40;56.20;;;;;;4991649;28;20573;-94
2021/06/27 06:06:23;;;;;;;13.13;12.20;;;26.10;58.00;;;;;;4989723;28;20434;-94
2021/06/27 06:08:55;;;;;;;12.07;11.37;;;25.50;58.40;;;;;;4971626;28;20426;-93
2021/06/27 06:11:25;;;;;;;13.97;12.70;;;22.40;53.60;;;;;;4979081;28;20426;-91
2021/06/27 06:14:06;;;;;;;13.90;13.00;;;24.40;55.00;;;;;;4988371;28;20426;-94
2021/06/27 06:16:59;;;;;;;12.87;11.90;;;24.70;54.50;;;;;;4980873;28;20526;-94
2021/06/27 06:19:53;;;;;;;12.70;11.80;;;24.70;53.50;;;;;;4982009;28;20490;-94
2021/06/27 06:22:31;;;;;;;13.93;13.03;;;25.10;53.60;;;;;;4975681;28;20453;-91
2021/06/27 06:25:24;;;;;;;13.70;12.77;;;23.40;52.80;;;;;;4972962;28;20425;-92
2021/06/27 06:28:17;;;;;;;12.97;12.23;;;24.70;53.20;;;;;;4994342;28;20419;-92
2021/06/27 06:31:02;;;;;;;12.67;11.63;;;25.00;52.90;;;;;;4978992;29;20433;-93
2021/06/27 06:33:32;;;;;;;12.60;11.90;;;25.50;52.60;;;;;;4961559;29;20493;-94
2021/06/27 06:36:00;;;;;;;12.13;11.43;;;26.00;52.70;;;;;;4986214;28;20828;-93
2021/06/27 06:38:38;;;;;;;11.80;11.10;;;25.70;49.80;;;;;;4977408;28;20429;-93
2021/06/27 06:41:13;;;;;;;12.53;11.70;;;26.50;49.70;;;;;;4978397;28;20542;-93
2021/06/27 06:43:52;;;;;;;11.70;11.10;;;27.10;50.30;;;;;;4979199;29;20440;-93
2021/06/27 06:46:22;;;;;;;12.40;11.60;;;25.90;47.50;;;;;;4978620;28;20429;-93
2021/06/27 06:48:51;;;;;;;11.43;10.53;;;28.30;46.90;;;;;;4638480;28;10000144;-94
2021/06/27 06:51:39;;;;;;;10.43;9.93;;;28.90;46.50;;;;;;4978174;28;20163;-92
2021/06/27 06:54:08;;;;;;;10.80;10.30;;;29.30;44.60;;;;;;4974655;28;20450;-95
2021/06/27 06:56:59;;;;;;;11.50;10.90;;;28.80;43.90;;;;;;4976458;28;20485;-91
2021/06/27 07:02:39;;;;;;;11.47;10.87;;;28.10;45.40;;;;;;4996382;28;20469;-93
2021/06/27 07:05:11;;;;;;;10.83;10.20;;;28.00;47.70;;;;;;4977841;28;20434;-94
2021/06/27 07:07:57;;;;;;;9.97;9.37;;;28.50;46.90;;;;;;4981275;28;20529;-92
2021/06/27 07:10:41;;;;;;;9.77;9.27;;;30.10;45.70;;;;;;4981871;28;20450;-92
2021/06/27 07:13:52;;;;;;;10.07;9.57;;;30.30;43.40;;;;;;4981136;28;20434;-90
2021/06/27 07:16:28;;;;;;;9.87;9.37;;;30.30;41.70;;;;;;4994069;28;20508;-91
2021/06/27 07:19:32;;;;;;;9.47;9.00;;;31.20;40.80;;;;;;4977910;28;20658;-92
2021/06/27 07:22:39;;;;;;;10.77;10.30;;;30.30;40.80;;;;;;4979457;29;20410;-91
2021/06/27 07:25:16;;;;;;;10.53;9.93;;;30.50;41.70;;;;;;4961641;28;20465;-94
2021/06/27 07:27:49;;;;;;;10.50;9.87;;;31.20;40.90;;;;;;5036721;23;20463;-94
2021/06/27 07:30:23;;;;;;;10.20;9.70;;;30.60;40.90;;;;;;4939883;29;20448;-92
2021/06/27 07:32:53;;;;;;;10.40;9.90;;;30.20;40.80;;;;;;4939592;29;20427;-92
2021/06/27 07:35:32;;;;;;;10.10;9.70;;;30.00;40.80;;;;;;4937934;29;20528;-93
2021/06/27 07:38:17;;;;;;;9.80;9.43;;;30.70;40.50;;;;;;4940112;29;20432;-94
2021/06/27 07:40:44;;;;;;;9.80;9.27;;;31.20;42.20;;;;;;4924215;29;20507;-92
2021/06/27 07:43:10;;;;;;;10.73;10.03;;;31.80;40.50;;;;;;4923429;29;20428;-90
2021/06/27 07:45:45;;;;;;;11.43;10.77;;;31.90;41.50;;;;;;4920920;29;20431;-91
2021/06/27 07:48:11;;;;;;;9.70;9.00;;;30.20;41.60;;;;;;4922231;29;20171;-94
2021/06/27 07:50:37;;;;;;;9.93;9.53;;;30.40;42.70;;;;;;4919374;29;20479;-87
2021/06/27 07:53:03;;;;;;;10.37;9.87;;;31.80;44.20;;;;;;4904606;29;20428;-90
2021/06/27 07:55:29;;;;;;;9.93;9.50;;;30.30;42.40;;;;;;4902629;29;20207;-90
2021/06/27 07:57:55;;;;;;;9.70;9.20;;;30.10;42.10;;;;;;4920151;29;20845;-90
2021/06/27 08:00:21;;;;;;;10.67;10.17;;;30.30;41.60;;;;;;4922741;29;20412;-90
2021/06/27 08:02:47;;;;;;;10.10;9.70;;;31.00;41.00;;;;;;4919071;29;20542;-90
2021/06/27 08:05:13;;;;;;;12.17;11.37;;;30.50;40.90;;;;;;4920836;29;20424;-91
2021/06/27 08:07:39;;;;;;;10.97;10.17;;;31.30;41.00;;;;;;4924860;29;20593;-94
2021/06/27 08:10:12;;;;;;;9.63;9.10;;;30.40;39.90;;;;;;4912783;29;20190;-94
2021/06/27 08:12:38;;;;;;;9.50;9.10;;;32.20;40.00;;;;;;4917461;29;20416;-94
2021/06/27 08:15:06;;;;;;;9.73;9.13;;;34.10;40.10;;;;;;4915404;29;20503;-94
2021/06/27 08:17:31;;;;;;;10.00;9.60;;;33.50;38.70;;;;;;4914910;29;20423;-93
2021/06/27 08:19:57;;;;;;;10.73;9.67;;;34.10;38.30;;;;;;4916898;29;20436;-95
2021/06/27 08:22:28;;;;;;;10.63;9.70;;;33.70;39.40;;;;;;4917773;29;20416;-93
2021/06/27 08:24:55;;;;;;;10.10;9.40;;;33.60;38.90;;;;;;4917039;29;20269;-93
2021/06/27 08:27:28;;;;;;;9.60;9.10;;;34.30;38.40;;;;;;4919556;29;20458;-92
2021/06/27 08:29:57;;;;;;;10.10;9.60;;;34.30;36.90;;;;;;4920365;29;20423;-92
2021/06/27 08:32:30;;;;;;;9.63;9.10;;;34.30;36.70;;;;;;4936229;29;20424;-92
2021/06/27 08:35:34;;;;;;;9.80;9.30;;;34.50;36.20;;;;;;4924799;29;20447;-93
2021/06/27 08:38:04;;;;;;;10.27;9.83;;;34.60;36.30;;;;;;4916796;29;20481;-91
2021/06/27 08:40:47;;;;;;;9.00;8.80;;;35.40;36.70;;;;;;4925699;29;20449;-91
2021/06/27 08:43:19;;;;;;;9.30;8.90;;;35.20;35.40;;;;;;4912260;29;20413;-92
2021/06/27 08:45:52;;;;;;;9.40;9.10;;;35.60;35.20;;;;;;4936106;29;20443;-91
2021/06/27 08:48:28;;;;;;;8.60;8.13;;;37.30;36.00;;;;;;4934038;29;20500;-92
2021/06/27 08:50:56;;;;;;;7.90;7.67;;;36.30;34.60;;;;;;4935657;29;20432;-91
2021/06/27 08:53:53;;;;;;;10.60;8.77;;;35.90;34.00;;;;;;4920266;29;20654;-91
2021/06/27 08:56:19;;;;;;;8.67;8.37;;;34.60;35.50;;;;;;4895057;29;20477;-91
2021/06/27 08:58:46;;;;;;;9.50;9.00;;;35.10;35.30;;;;;;4933184;29;20492;-90
2021/06/27 09:01:15;;;;;;;10.00;9.63;;;35.30;36.20;;;;;;4936066;29;20428;-90
2021/06/27 09:03:48;;;;;;;8.40;8.10;;;34.70;35.70;;;;;;4930244;29;20416;-90
2021/06/27 09:06:30;;;;;;;9.47;8.90;;;34.80;35.80;;;;;;4931605;29;20428;-92
2021/06/27 09:09:14;;;;;;;9.30;8.90;;;34.70;36.30;;;;;;4936155;29;20416;-92
2021/06/27 09:11:59;;;;;;;9.37;8.97;;;34.50;35.40;;;;;;4933518;29;20483;-89
2021/06/27 09:14:40;;;;;;;10.23;9.80;;;34.50;36.10;;;;;;4914555;29;20877;-90
2021/06/27 09:17:14;;;;;;;10.50;9.80;;;34.20;35.50;;;;;;4930752;29;20412;-92
2021/06/27 09:19:57;;;;;;;14.43;13.67;;;34.20;37.30;;;;;;4933345;29;20975;-91
2021/06/27 09:22:27;;;;;;;9.23;8.93;;;35.00;36.10;;;;;;4933422;29;20424;-91
2021/06/27 09:25:14;;;;;;;10.50;9.90;;;34.30;35.80;;;;;;4935132;29;20482;-91
2021/06/27 09:28:15;;;;;;;8.80;8.40;;;34.20;36.90;;;;;;4909693;29;20487;-93
2021/06/27 09:31:00;;;;;;;10.33;9.93;;;34.50;36.70;;;;;;5087068;23;21470;-93
2021/06/27 09:33:35;;;;;;;9.60;9.20;;;32.90;35.80;;;;;;4991687;28;20902;-93
2021/06/27 09:36:10;;;;;;;9.00;8.70;;;33.00;36.30;;;;;;4977848;28;20477;-92
2021/06/27 09:38:45;;;;;;;9.23;8.83;;;33.70;37.50;;;;;;4977931;28;20433;-91
2021/06/27 09:41:33;;;;;;;8.43;8.10;;;33.00;37.30;;;;;;4973779;28;20488;-91
2021/06/27 09:44:24;;;;;;;;;;;;;;;;;;;;;
2021/06/27 09:46:53;;;;;;;8.90;8.60;;;32.90;36.20;;;;;;4995347;28;20441;-89
2021/06/27 09:49:35;;;;;;;;;;;;;;;;;;;;;
2021/06/27 09:52:38;;;;;;;9.70;9.20;;;32.60;39.60;;;;;;4990222;28;20446;-92
2021/06/27 09:55:26;;;;;;;;;;;;;;;;;;;;;
2021/06/27 09:58:15;;;;;;;9.60;9.10;;;32.80;36.80;;;;;;4976864;28;20442;-91
2021/06/27 10:00:43;;;;;;;9.87;9.27;;;33.50;37.20;;;;;;4988484;28;20401;-90
2021/06/27 10:03:17;;;;;;;9.57;9.27;;;34.20;35.80;;;;;;4985791;28;20475;-91
2021/06/27 10:05:43;;;;;;;9.30;8.90;;;35.20;35.20;;;;;;4987863;28;20421;-89
2021/06/27 10:08:30;;;;;;;15.77;14.67;;;35.90;35.10;;;;;;4989091;28;20428;-89
2021/06/27 10:11:31;;;;;;;23.43;21.13;;;35.90;33.70;;;;;;4970613;28;20186;-91
2021/06/27 10:14:12;;;;;;;16.30;15.00;;;34.80;34.50;;;;;;4977843;28;20484;-93
2021/06/27 10:16:39;;;;;;;10.10;9.30;;;33.20;35.10;;;;;;4992735;28;20457;-90
2021/06/27 10:19:34;;;;;;;9.93;9.53;;;34.30;37.90;;;;;;4987290;28;20441;-92
2021/06/27 10:22:03;;;;;;;10.70;10.20;;;34.10;35.40;;;;;;4988023;28;20501;-89
2021/06/27 10:24:33;;;;;;;9.03;8.73;;;34.80;34.70;;;;;;4989830;28;20405;-91
2021/06/27 10:27:01;;;;;;;9.43;9.13;;;35.20;34.10;;;;;;4966224;28;20453;-90
2021/06/27 10:29:32;;;;;;;10.67;10.27;;;35.10;35.10;;;;;;4971991;28;20445;-91
2021/06/27 10:31:58;;;;;;;9.17;8.80;;;35.10;33.80;;;;;;4987172;28;20468;-91
2021/06/27 10:34:25;;;;;;;9.17;8.43;;;33.90;34.80;;;;;;4994292;28;20424;-90
2021/06/27 10:37:03;;;;;;;8.83;8.53;;;34.10;35.00;;;;;;4989863;28;20482;-88
2021/06/27 10:39:29;;;;;;;10.30;9.70;;;33.60;34.90;;;;;;4993139;28;20452;-89
2021/06/27 10:42:04;;;;;;;8.60;8.20;;;33.20;37.30;;;;;;5011028;28;20469;-91
2021/06/27 10:44:46;;;;;;;9.00;8.50;;;32.30;36.20;;;;;;5010408;28;20173;-91
2021/06/27 10:47:30;;;;;;;9.23;8.83;;;32.50;37.20;;;;;;4995066;28;20493;-91
2021/06/27 10:49:56;;;;;;;9.20;8.60;;;33.60;36.50;;;;;;4994332;28;20424;-91
2021/06/27 10:52:25;;;;;;;9.60;9.00;;;33.80;36.30;;;;;;4993210;28;20439;-89
2021/06/27 10:55:19;;;;;;;10.40;9.70;;;32.50;36.00;;;;;;4994182;28;20213;-90
2021/06/27 10:58:11;;;;;;;10.80;10.20;;;31.90;36.40;;;;;;5007761;28;20420;-92
2021/06/27 11:01:00;;;;;;;9.83;9.33;;;31.40;37.30;;;;;;4993293;28;20504;-88
2021/06/27 11:03:43;;;;;;;9.73;9.33;;;31.60;38.30;;;;;;4995849;28;20432;-93
2021/06/27 11:06:17;;;;;;;9.40;8.50;;;32.60;37.80;;;;;;5009933;28;20421;-90
2021/06/27 11:08:48;;;;;;;8.30;8.00;;;33.10;34.80;;;;;;4994160;28;20424;-90
2021/06/27 11:12:10;;;;;;;9.67;9.13;;;33.20;35.70;;;;;;5009558;28;20421;-92
2021/06/27 11:14:37;;;;;;;7.60;7.30;;;34.70;34.40;;;;;;5003130;28;20416;-94
2021/06/27 11:17:09;;;;;;;8.13;7.73;;;35.30;34.70;;;;;;4997303;28;20516;-93
2021/06/27 11:19:46;;;;;;;9.30;8.60;;;35.60;33.40;;;;;;4992087;28;20185;-92
2021/06/27 11:22:55;;;;;;;;;;;;;;;;;;;;;
2021/06/27 11:25:37;;;;;;;8.20;7.90;;;35.90;31.90;;;;;;5016603;28;20424;-92
2021/06/27 11:28:31;;;;;;;17.57;16.20;;;36.30;32.00;;;;;;4995345;28;20465;-92
2021/06/27 11:31:45;;;;;;;9.50;9.00;;;36.40;32.30;;;;;;5013470;28;20439;-93
2021/06/27 11:34:49;;;;;;;8.70;8.30;;;37.10;31.00;;;;;;5014449;28;20409;-90
2021/06/27 11:37:18;;;;;;;7.43;7.23;;;37.50;31.10;;;;;;4980806;28;20424;-93
2021/06/27 11:39:59;;;;;;;8.40;8.20;;;36.60;31.90;;;;;;5013240;28;20411;-92
2021/06/27 11:42:42;;;;;;;8.57;8.27;;;36.00;32.10;;;;;;4994936;28;20401;-90
2021/06/27 11:45:35;;;;;;;8.50;8.10;;;36.20;33.00;;;;;;4979530;28;20409;-93
2021/06/27 11:48:25;;;;;;;8.00;7.80;;;35.40;32.10;;;;;;4963838;28;20429;-88
2021/06/27 11:50:58;;;;;;;7.63;7.33;;;34.90;32.00;;;;;;4996059;28;20760;-92
2021/06/27 11:53:55;;;;;;;8.50;8.20;;;34.60;35.00;;;;;;4996412;28;20410;-91
2021/06/27 11:59:57;;;;;;;8.13;7.73;;;35.90;32.70;;;;;;3107831;26;20485;-90
2021/06/27 12:02:38;;;;;;;7.63;7.43;;;34.80;33.30;;;;;;4941563;28;20502;-90
2021/06/27 12:05:17;;;;;;;7.73;7.33;;;34.40;33.90;;;;;;4970864;28;20442;-92
2021/06/27 12:08:23;;;;;;;7.07;6.83;;;35.10;32.40;;;;;;4973215;29;20441;-90
2021/06/27 12:10:58;;;;;;;66.03;48.53;;;36.10;31.80;;;;;;4963311;28;20429;-93
2021/06/27 12:13:28;;;;;;;129.80;98.40;;;36.80;30.60;;;;;;4969270;28;20429;-94
2021/06/27 12:15:57;;;;;;;9.53;9.03;;;37.70;30.40;;;;;;4962478;28;20468;-93
2021/06/27 12:18:31;;;;;;;13.30;12.23;;;37.80;29.60;;;;;;4972988;28;20414;-90
2021/06/27 12:21:14;;;;;;;10.80;10.10;;;36.50;30.00;;;;;;4974771;28;20435;-91
2021/06/27 12:23:57;;;;;;;9.60;9.10;;;36.10;30.70;;;;;;4966035;28;20426;-92
2021/06/27 12:26:28;;;;;;;8.93;8.40;;;35.80;31.20;;;;;;4956647;29;20474;-92
2021/06/27 12:28:58;;;;;;;10.20;9.70;;;35.30;31.40;;;;;;4952379;28;20457;-89
2021/06/27 12:31:52;;;;;;;9.17;8.70;;;35.50;31.80;;;;;;4958673;29;20430;-90
2021/06/27 12:34:45;;;;;;;10.47;9.53;;;34.40;31.10;;;;;;4971553;28;20438;-92
2021/06/27 12:37:19;;;;;;;7.80;7.50;;;36.60;33.60;;;;;;4967334;28;20453;-91
2021/06/27 12:39:45;;;;;;;8.80;8.50;;;34.70;33.00;;;;;;4969506;29;20426;-89
2021/06/27 12:42:16;;;;;;;7.10;6.90;;;34.30;34.50;;;;;;4964555;28;20406;-92
2021/06/27 12:44:46;;;;;;;8.10;7.80;;;34.00;35.00;;;;;;4970194;28;20171;-94
2021/06/27 12:47:29;;;;;;;8.47;8.03;;;34.70;35.00;;;;;;4971718;28;20514;-91
2021/06/27 12:49:56;;;;;;;8.67;8.27;;;33.30;33.80;;;;;;4979107;28;20398;-90
2021/06/27 12:52:28;;;;;;;7.97;7.50;;;33.00;33.60;;;;;;4972236;28;20489;-90
2021/06/27 12:54:55;;;;;;;9.63;8.83;;;33.50;34.50;;;;;;4971990;29;20469;-89
2021/06/27 12:57:57;;;;;;;6.63;6.43;;;35.00;33.20;;;;;;4970586;29;20764;-91
2021/06/27 13:00:29;;;;;;;7.50;7.30;;;36.60;31.70;;;;;;4936430;29;20191;-92
2021/06/27 13:03:16;;;;;;;6.80;6.60;;;37.80;29.90;;;;;;4952930;29;20476;-93
2021/06/27 13:06:15;;;;;;;6.97;6.57;;;38.50;30.30;;;;;;4941437;28;20434;-89
2021/06/27 13:11:27;;;;;;;6.97;6.70;;;37.10;29.60;;;;;;4998591;23;20478;-91
2021/06/27 13:14:21;;;;;;;6.80;6.70;;;37.50;30.50;;;;;;4980546;28;20449;-93
2021/06/27 13:17:14;;;;;;;7.20;6.90;;;37.70;30.10;;;;;;4986511;28;20482;-93
2021/06/27 13:20:13;;;;;;;7.00;6.77;;;38.10;29.30;;;;;;4949422;29;20461;-91
2021/06/27 13:23:25;;;;;;;6.90;6.80;;;38.30;30.00;;;;;;4946795;28;20414;-92
2021/06/27 13:26:35;;;;;;;5.77;5.77;;;38.20;29.50;;;;;;4969499;28;20418;-92
2021/06/27 13:29:01;;;;;;;6.40;6.30;;;38.00;29.10;;;;;;4951096;28;20507;-90
2021/06/27 13:31:29;;;;;;;6.30;6.20;;;37.50;30.60;;;;;;4953960;29;20444;-90
2021/06/27 13:34:01;;;;;;;7.20;6.90;;;36.90;30.10;;;;;;4980805;28;20516;-91
2021/06/27 13:36:36;;;;;;;7.83;7.53;;;35.80;29.40;;;;;;4971332;28;20473;-91
2021/06/27 13:39:14;;;;;;;6.80;6.70;;;35.70;30.20;;;;;;4972477;28;20437;-90
2021/06/27 13:41:46;;;;;;;8.53;8.20;;;35.30;30.80;;;;;;4985804;28;20454;-89
2021/06/27 13:44:12;;;;;;;7.27;7.07;;;35.20;32.50;;;;;;4961257;28;20423;-91
2021/06/27 13:46:43;;;;;;;7.30;7.00;;;34.30;33.40;;;;;;4964927;28;20422;-92
2021/06/27 13:49:12;;;;;;;7.00;6.80;;;33.90;32.20;;;;;;4957416;28;20454;-91
2021/06/27 13:51:37;;;;;;;37.13;30.90;;;33.80;33.20;;;;;;4976520;28;20787;-90
2021/06/27 13:54:06;;;;;;;8.33;8.03;;;33.60;32.80;;;;;;4956606;28;20426;-91
2021/06/27 13:56:32;;;;;;;8.37;8.03;;;33.50;32.90;;;;;;4962495;28;20241;-93
2021/06/27 13:58:58;;;;;;;8.70;7.90;;;33.30;34.00;;;;;;4973492;28;20621;-89
2021/06/27 14:01:32;;;;;;;10.80;10.20;;;32.80;34.60;;;;;;4979799;28;20200;-90
2021/06/27 14:03:58;;;;;;;7.20;7.00;;;32.40;33.80;;;;;;4975205;28;20415;-90
2021/06/27 14:06:25;;;;;;;8.07;7.67;;;32.20;33.80;;;;;;4950169;28;20441;-91
2021/06/27 14:08:52;;;;;;;7.30;6.97;;;32.30;34.50;;;;;;4973978;28;20437;-89